sensor_id;sensor_type;location;lat;lon;timestamp;P1;durP1;ratioP1;P2;durP2;ratioP2
18711;SDS011;9485;49.386;8.674;2023-07-08T00:02:54;5.97;;;4.43;;
18711;SDS011;9485;49.386;8.674;2023-07-08T00:08:14;6.82;;;4.45;;
18711;SDS011;9485;49.386;8.674;2023-07-08T00:13:40;4.47;;;3.88;;
18711;SDS011;9485;49.386;8.674;2023-07-08T00:19:03;5.90;;;4.53;;
18711;SDS011;9485;49.386;8.674;2023-07-08T00:24:29;5.20;;;3.70;;
18711;SDS011;9485;49.386;8.674;2023-07-08T00:29:50;5.18;;;4.35;;
18711;SDS011;9485;49.386;8.674;2023-07-08T00:35:13;5.50;;;4.35;;
18711;SDS011;9485;49.386;8.674;2023-07-08T00:40:33;5.40;;;4.25;;
18711;SDS011;9485;49.386;8.674;2023-07-08T00:45:56;6.63;;;4.22;;
18711;SDS011;9485;49.386;8.674;2023-07-08T00:51:35;5.05;;;4.07;;
18711;SDS011;9485;49.386;8.674;2023-07-08T00:57:00;5.82;;;4.28;;
18711;SDS011;9485;49.386;8.674;2023-07-08T01:02:24;5.43;;;4.65;;
18711;SDS011;9485;49.386;8.674;2023-07-08T01:07:50;5.43;;;4.43;;
18711;SDS011;9485;49.386;8.674;2023-07-08T01:13:16;5.70;;;4.18;;
18711;SDS011;9485;49.386;8.674;2023-07-08T01:18:40;5.00;;;4.05;;
18711;SDS011;9485;49.386;8.674;2023-07-08T01:24:04;5.43;;;3.83;;
18711;SDS011;9485;49.386;8.674;2023-07-08T01:29:29;4.55;;;3.90;;
18711;SDS011;9485;49.386;8.674;2023-07-08T01:34:50;5.57;;;4.15;;
18711;SDS011;9485;49.386;8.674;2023-07-08T01:40:25;5.70;;;4.30;;
18711;SDS011;9485;49.386;8.674;2023-07-08T01:45:49;6.65;;;3.78;;
18711;SDS011;9485;49.386;8.674;2023-07-08T01:51:13;5.65;;;4.00;;
18711;SDS011;9485;49.386;8.674;2023-07-08T01:56:36;5.25;;;4.03;;
18711;SDS011;9485;49.386;8.674;2023-07-08T02:01:59;7.20;;;4.82;;
18711;SDS011;9485;49.386;8.674;2023-07-08T02:07:21;5.65;;;4.35;;
18711;SDS011;9485;49.386;8.674;2023-07-08T02:12:43;6.20;;;4.35;;
18711;SDS011;9485;49.386;8.674;2023-07-08T02:18:05;5.75;;;4.05;;
18711;SDS011;9485;49.386;8.674;2023-07-08T02:23:26;4.68;;;3.45;;
18711;SDS011;9485;49.386;8.674;2023-07-08T02:28:53;4.38;;;3.58;;
18711;SDS011;9485;49.386;8.674;2023-07-08T02:34:13;5.45;;;4.35;;
18711;SDS011;9485;49.386;8.674;2023-07-08T02:39:34;5.13;;;4.07;;
18711;SDS011;9485;49.386;8.674;2023-07-08T02:44:56;5.18;;;4.05;;
18711;SDS011;9485;49.386;8.674;2023-07-08T02:50:17;6.88;;;4.65;;
18711;SDS011;9485;49.386;8.674;2023-07-08T02:55:38;6.10;;;4.25;;
18711;SDS011;9485;49.386;8.674;2023-07-08T03:01:03;5.70;;;4.20;;
18711;SDS011;9485;49.386;8.674;2023-07-08T03:06:25;5.97;;;4.30;;
18711;SDS011;9485;49.386;8.674;2023-07-08T03:11:47;4.55;;;3.80;;
18711;SDS011;9485;49.386;8.674;2023-07-08T03:17:10;5.75;;;4.10;;
18711;SDS011;9485;49.386;8.674;2023-07-08T03:22:30;5.45;;;3.92;;
18711;SDS011;9485;49.386;8.674;2023-07-08T03:27:51;5.10;;;3.88;;
18711;SDS011;9485;49.386;8.674;2023-07-08T03:33:16;5.20;;;3.90;;
18711;SDS011;9485;49.386;8.674;2023-07-08T03:38:37;7.18;;;4.28;;
18711;SDS011;9485;49.386;8.674;2023-07-08T03:43:58;4.68;;;3.92;;
18711;SDS011;9485;49.386;8.674;2023-07-08T03:49:22;5.32;;;3.78;;
18711;SDS011;9485;49.386;8.674;2023-07-08T03:54:44;8.50;;;4.00;;
18711;SDS011;9485;49.386;8.674;2023-07-08T04:00:06;3.65;;;3.25;;
18711;SDS011;9485;49.386;8.674;2023-07-08T04:05:36;5.45;;;3.80;;
18711;SDS011;9485;49.386;8.674;2023-07-08T04:10:57;5.10;;;3.83;;
18711;SDS011;9485;49.386;8.674;2023-07-08T04:16:18;6.30;;;3.80;;
18711;SDS011;9485;49.386;8.674;2023-07-08T04:21:44;4.78;;;4.03;;
18711;SDS011;9485;49.386;8.674;2023-07-08T04:27:05;5.80;;;3.70;;
18711;SDS011;9485;49.386;8.674;2023-07-08T04:32:29;6.18;;;4.30;;
18711;SDS011;9485;49.386;8.674;2023-07-08T04:37:52;6.13;;;3.88;;
18711;SDS011;9485;49.386;8.674;2023-07-08T04:43:14;5.57;;;3.95;;
18711;SDS011;9485;49.386;8.674;2023-07-08T04:48:35;6.80;;;3.85;;
18711;SDS011;9485;49.386;8.674;2023-07-08T04:53:57;4.90;;;3.70;;
18711;SDS011;9485;49.386;8.674;2023-07-08T04:59:20;6.00;;;3.95;;
18711;SDS011;9485;49.386;8.674;2023-07-08T05:04:43;6.30;;;3.70;;
18711;SDS011;9485;49.386;8.674;2023-07-08T05:10:07;5.97;;;3.78;;
18711;SDS011;9485;49.386;8.674;2023-07-08T05:15:30;4.90;;;3.80;;
18711;SDS011;9485;49.386;8.674;2023-07-08T05:20:52;6.68;;;3.97;;
18711;SDS011;9485;49.386;8.674;2023-07-08T05:26:17;5.00;;;3.58;;
18711;SDS011;9485;49.386;8.674;2023-07-08T05:31:38;5.22;;;4.03;;
18711;SDS011;9485;49.386;8.674;2023-07-08T05:36:59;6.03;;;3.70;;
18711;SDS011;9485;49.386;8.674;2023-07-08T05:42:24;5.65;;;3.65;;
18711;SDS011;9485;49.386;8.674;2023-07-08T05:47:46;4.57;;;3.65;;
18711;SDS011;9485;49.386;8.674;2023-07-08T05:53:08;5.47;;;3.55;;
18711;SDS011;9485;49.386;8.674;2023-07-08T05:58:31;4.20;;;3.33;;
18711;SDS011;9485;49.386;8.674;2023-07-08T06:03:53;4.72;;;3.65;;
18711;SDS011;9485;49.386;8.674;2023-07-08T06:09:16;6.72;;;4.93;;
18711;SDS011;9485;49.386;8.674;2023-07-08T06:14:38;9.10;;;4.57;;
18711;SDS011;9485;49.386;8.674;2023-07-08T06:19:59;5.80;;;4.05;;
18711;SDS011;9485;49.386;8.674;2023-07-08T06:25:21;8.55;;;3.67;;
18711;SDS011;9485;49.386;8.674;2023-07-08T06:30:44;5.63;;;3.75;;
18711;SDS011;9485;49.386;8.674;2023-07-08T06:36:05;4.03;;;3.28;;
18711;SDS011;9485;49.386;8.674;2023-07-08T06:41:29;5.45;;;3.40;;
18711;SDS011;9485;49.386;8.674;2023-07-08T06:46:51;5.53;;;3.70;;
18711;SDS011;9485;49.386;8.674;2023-07-08T06:52:13;4.18;;;3.53;;
18711;SDS011;9485;49.386;8.674;2023-07-08T06:57:36;13.00;;;4.32;;
18711;SDS011;9485;49.386;8.674;2023-07-08T07:02:59;5.25;;;3.85;;
18711;SDS011;9485;49.386;8.674;2023-07-08T07:08:20;5.80;;;3.78;;
18711;SDS011;9485;49.386;8.674;2023-07-08T07:13:41;6.07;;;3.72;;
18711;SDS011;9485;49.386;8.674;2023-07-08T07:19:04;6.03;;;3.88;;
18711;SDS011;9485;49.386;8.674;2023-07-08T07:24:26;5.05;;;3.60;;
18711;SDS011;9485;49.386;8.674;2023-07-08T07:29:48;5.45;;;3.67;;
18711;SDS011;9485;49.386;8.674;2023-07-08T07:35:13;5.88;;;3.50;;
18711;SDS011;9485;49.386;8.674;2023-07-08T07:40:35;4.38;;;3.10;;
18711;SDS011;9485;49.386;8.674;2023-07-08T07:45:56;4.20;;;3.17;;
18711;SDS011;9485;49.386;8.674;2023-07-08T07:51:20;3.55;;;2.92;;
18711;SDS011;9485;49.386;8.674;2023-07-08T07:56:41;4.03;;;2.60;;
18711;SDS011;9485;49.386;8.674;2023-07-08T08:02:03;5.28;;;2.95;;
18711;SDS011;9485;49.386;8.674;2023-07-08T08:07:27;3.72;;;2.58;;
18711;SDS011;9485;49.386;8.674;2023-07-08T08:12:48;3.67;;;2.03;;
18711;SDS011;9485;49.386;8.674;2023-07-08T08:18:11;2.88;;;2.25;;
18711;SDS011;9485;49.386;8.674;2023-07-08T08:23:35;2.95;;;1.80;;
18711;SDS011;9485;49.386;8.674;2023-07-08T08:28:56;2.08;;;1.60;;
18711;SDS011;9485;49.386;8.674;2023-07-08T08:34:18;3.08;;;2.20;;
18711;SDS011;9485;49.386;8.674;2023-07-08T08:39:41;2.88;;;1.77;;
18711;SDS011;9485;49.386;8.674;2023-07-08T08:45:03;2.42;;;1.80;;
18711;SDS011;9485;49.386;8.674;2023-07-08T08:50:29;2.10;;;1.73;;
18711;SDS011;9485;49.386;8.674;2023-07-08T08:55:56;2.30;;;1.60;;
18711;SDS011;9485;49.386;8.674;2023-07-08T09:01:26;2.70;;;1.95;;
18711;SDS011;9485;49.386;8.674;2023-07-08T09:06:47;2.88;;;2.20;;
18711;SDS011;9485;49.386;8.674;2023-07-08T09:12:12;3.05;;;1.80;;
18711;SDS011;9485;49.386;8.674;2023-07-08T09:17:40;2.45;;;2.10;;
18711;SDS011;9485;49.386;8.674;2023-07-08T09:23:03;2.58;;;1.92;;
18711;SDS011;9485;49.386;8.674;2023-07-08T09:28:39;5.25;;;2.40;;
18711;SDS011;9485;49.386;8.674;2023-07-08T09:34:05;3.97;;;2.33;;
18711;SDS011;9485;49.386;8.674;2023-07-08T09:39:31;3.03;;;2.40;;
18711;SDS011;9485;49.386;8.674;2023-07-08T09:44:58;3.28;;;2.25;;
18711;SDS011;9485;49.386;8.674;2023-07-08T09:50:25;4.88;;;2.53;;
18711;SDS011;9485;49.386;8.674;2023-07-08T09:55:48;2.92;;;2.60;;
18711;SDS011;9485;49.386;8.674;2023-07-08T10:01:13;2.95;;;2.55;;
18711;SDS011;9485;49.386;8.674;2023-07-08T10:06:42;4.28;;;2.72;;
18711;SDS011;9485;49.386;8.674;2023-07-08T10:12:08;6.88;;;2.60;;
18711;SDS011;9485;49.386;8.674;2023-07-08T10:17:38;3.30;;;2.10;;
18711;SDS011;9485;49.386;8.674;2023-07-08T10:23:05;3.83;;;2.97;;
18711;SDS011;9485;49.386;8.674;2023-07-08T10:28:44;3.90;;;2.65;;
18711;SDS011;9485;49.386;8.674;2023-07-08T10:34:20;8.77;;;3.17;;
18711;SDS011;9485;49.386;8.674;2023-07-08T10:40:07;3.33;;;2.95;;
18711;SDS011;9485;49.386;8.674;2023-07-08T10:51:43;3.00;;;2.65;;
18711;SDS011;9485;49.386;8.674;2023-07-08T10:57:18;4.55;;;3.35;;
18711;SDS011;9485;49.386;8.674;2023-07-08T11:03:26;4.88;;;2.78;;
18711;SDS011;9485;49.386;8.674;2023-07-08T11:09:21;3.30;;;2.72;;
18711;SDS011;9485;49.386;8.674;2023-07-08T11:14:51;4.30;;;2.83;;
18711;SDS011;9485;49.386;8.674;2023-07-08T11:20:22;4.10;;;2.95;;
18711;SDS011;9485;49.386;8.674;2023-07-08T11:26:06;3.17;;;2.83;;
18711;SDS011;9485;49.386;8.674;2023-07-08T11:31:45;3.92;;;2.78;;
18711;SDS011;9485;49.386;8.674;2023-07-08T11:37:08;4.65;;;3.05;;
18711;SDS011;9485;49.386;8.674;2023-07-08T11:42:33;4.85;;;3.35;;
18711;SDS011;9485;49.386;8.674;2023-07-08T11:48:06;3.10;;;2.75;;
18711;SDS011;9485;49.386;8.674;2023-07-08T11:53:38;4.63;;;2.95;;
18711;SDS011;9485;49.386;8.674;2023-07-08T11:59:14;4.05;;;2.65;;
18711;SDS011;9485;49.386;8.674;2023-07-08T12:04:52;2.88;;;2.60;;
18711;SDS011;9485;49.386;8.674;2023-07-08T12:10:22;4.65;;;3.13;;
18711;SDS011;9485;49.386;8.674;2023-07-08T12:15:50;3.25;;;2.53;;
18711;SDS011;9485;49.386;8.674;2023-07-08T12:21:12;4.55;;;3.42;;
18711;SDS011;9485;49.386;8.674;2023-07-08T12:26:34;3.92;;;3.05;;
18711;SDS011;9485;49.386;8.674;2023-07-08T12:31:56;3.30;;;2.65;;
18711;SDS011;9485;49.386;8.674;2023-07-08T12:37:23;3.65;;;3.13;;
18711;SDS011;9485;49.386;8.674;2023-07-08T12:42:44;3.70;;;3.30;;
18711;SDS011;9485;49.386;8.674;2023-07-08T12:48:07;3.70;;;3.10;;
18711;SDS011;9485;49.386;8.674;2023-07-08T12:53:29;3.38;;;2.80;;
18711;SDS011;9485;49.386;8.674;2023-07-08T12:58:54;2.95;;;2.60;;
18711;SDS011;9485;49.386;8.674;2023-07-08T13:04:20;6.47;;;5.75;;
18711;SDS011;9485;49.386;8.674;2023-07-08T13:09:43;6.85;;;3.80;;
18711;SDS011;9485;49.386;8.674;2023-07-08T13:15:08;4.78;;;3.25;;
18711;SDS011;9485;49.386;8.674;2023-07-08T13:20:39;3.55;;;2.38;;
18711;SDS011;9485;49.386;8.674;2023-07-08T13:26:10;3.03;;;2.33;;
18711;SDS011;9485;49.386;8.674;2023-07-08T13:31:34;3.45;;;2.50;;
18711;SDS011;9485;49.386;8.674;2023-07-08T13:37:00;3.70;;;2.28;;
18711;SDS011;9485;49.386;8.674;2023-07-08T13:42:23;2.78;;;2.28;;
18711;SDS011;9485;49.386;8.674;2023-07-08T13:47:56;4.40;;;2.47;;
18711;SDS011;9485;49.386;8.674;2023-07-08T13:53:42;4.00;;;2.40;;
18711;SDS011;9485;49.386;8.674;2023-07-08T13:59:07;2.20;;;1.92;;
18711;SDS011;9485;49.386;8.674;2023-07-08T14:04:32;2.22;;;2.03;;
18711;SDS011;9485;49.386;8.674;2023-07-08T14:09:57;2.80;;;2.15;;
18711;SDS011;9485;49.386;8.674;2023-07-08T14:15:18;3.22;;;2.25;;
18711;SDS011;9485;49.386;8.674;2023-07-08T14:20:40;2.47;;;2.13;;
18711;SDS011;9485;49.386;8.674;2023-07-08T14:26:06;4.25;;;2.20;;
18711;SDS011;9485;49.386;8.674;2023-07-08T14:31:31;3.53;;;2.30;;
18711;SDS011;9485;49.386;8.674;2023-07-08T14:36:54;2.75;;;1.58;;
18711;SDS011;9485;49.386;8.674;2023-07-08T14:42:18;2.95;;;1.75;;
18711;SDS011;9485;49.386;8.674;2023-07-08T14:47:40;2.05;;;1.67;;
18711;SDS011;9485;49.386;8.674;2023-07-08T14:53:03;3.33;;;1.85;;
18711;SDS011;9485;49.386;8.674;2023-07-08T14:58:28;3.15;;;2.05;;
18711;SDS011;9485;49.386;8.674;2023-07-08T15:03:51;4.30;;;1.92;;
18711;SDS011;9485;49.386;8.674;2023-07-08T15:09:13;2.95;;;2.00;;
18711;SDS011;9485;49.386;8.674;2023-07-08T15:14:37;3.13;;;2.15;;
18711;SDS011;9485;49.386;8.674;2023-07-08T15:20:04;3.42;;;1.98;;
18711;SDS011;9485;49.386;8.674;2023-07-08T15:25:34;2.35;;;1.90;;
18711;SDS011;9485;49.386;8.674;2023-07-08T15:30:58;2.50;;;1.75;;
18711;SDS011;9485;49.386;8.674;2023-07-08T15:36:23;2.42;;;1.70;;
18711;SDS011;9485;49.386;8.674;2023-07-08T15:41:45;3.72;;;2.10;;
18711;SDS011;9485;49.386;8.674;2023-07-08T15:47:11;2.60;;;1.90;;
18711;SDS011;9485;49.386;8.674;2023-07-08T15:52:33;2.25;;;1.90;;
18711;SDS011;9485;49.386;8.674;2023-07-08T15:57:57;4.13;;;1.73;;
18711;SDS011;9485;49.386;8.674;2023-07-08T16:03:29;2.72;;;1.90;;
18711;SDS011;9485;49.386;8.674;2023-07-08T16:08:55;2.05;;;1.85;;
18711;SDS011;9485;49.386;8.674;2023-07-08T16:14:16;3.17;;;1.98;;
18711;SDS011;9485;49.386;8.674;2023-07-08T16:19:40;2.05;;;1.85;;
18711;SDS011;9485;49.386;8.674;2023-07-08T16:25:02;2.75;;;2.17;;
18711;SDS011;9485;49.386;8.674;2023-07-08T16:30:25;2.20;;;1.90;;
18711;SDS011;9485;49.386;8.674;2023-07-08T16:35:48;2.80;;;2.00;;
18711;SDS011;9485;49.386;8.674;2023-07-08T16:41:10;2.35;;;1.90;;
18711;SDS011;9485;49.386;8.674;2023-07-08T16:46:34;2.92;;;1.80;;
18711;SDS011;9485;49.386;8.674;2023-07-08T16:51:56;3.67;;;2.00;;
18711;SDS011;9485;49.386;8.674;2023-07-08T16:57:17;2.53;;;1.77;;
18711;SDS011;9485;49.386;8.674;2023-07-08T17:02:38;3.33;;;1.73;;
18711;SDS011;9485;49.386;8.674;2023-07-08T17:08:04;2.45;;;1.67;;
18711;SDS011;9485;49.386;8.674;2023-07-08T17:13:27;4.10;;;1.80;;
18711;SDS011;9485;49.386;8.674;2023-07-08T17:18:50;3.22;;;1.95;;
18711;SDS011;9485;49.386;8.674;2023-07-08T17:24:19;4.15;;;2.05;;
18711;SDS011;9485;49.386;8.674;2023-07-08T17:29:40;3.05;;;2.28;;
18711;SDS011;9485;49.386;8.674;2023-07-08T17:35:01;4.32;;;2.97;;
18711;SDS011;9485;49.386;8.674;2023-07-08T17:40:24;3.58;;;2.63;;
18711;SDS011;9485;49.386;8.674;2023-07-08T17:45:47;2.63;;;2.10;;
18711;SDS011;9485;49.386;8.674;2023-07-08T17:51:09;5.10;;;3.00;;
18711;SDS011;9485;49.386;8.674;2023-07-08T17:56:31;4.63;;;3.10;;
18711;SDS011;9485;49.386;8.674;2023-07-08T18:01:55;4.05;;;2.65;;
18711;SDS011;9485;49.386;8.674;2023-07-08T18:07:16;4.45;;;2.58;;
18711;SDS011;9485;49.386;8.674;2023-07-08T18:12:38;4.28;;;3.00;;
18711;SDS011;9485;49.386;8.674;2023-07-08T18:18:01;4.43;;;3.00;;
18711;SDS011;9485;49.386;8.674;2023-07-08T18:23:23;6.43;;;3.88;;
18711;SDS011;9485;49.386;8.674;2023-07-08T18:28:51;4.57;;;3.58;;
18711;SDS011;9485;49.386;8.674;2023-07-08T18:34:12;6.25;;;3.55;;
18711;SDS011;9485;49.386;8.674;2023-07-08T18:39:33;5.60;;;3.15;;
18711;SDS011;9485;49.386;8.674;2023-07-08T18:44:57;5.32;;;3.00;;
18711;SDS011;9485;49.386;8.674;2023-07-08T18:50:18;4.28;;;2.92;;
18711;SDS011;9485;49.386;8.674;2023-07-08T18:55:39;3.65;;;3.00;;
18711;SDS011;9485;49.386;8.674;2023-07-08T19:01:02;3.38;;;2.55;;
18711;SDS011;9485;49.386;8.674;2023-07-08T19:06:30;3.67;;;2.53;;
18711;SDS011;9485;49.386;8.674;2023-07-08T19:11:51;4.40;;;2.42;;
18711;SDS011;9485;49.386;8.674;2023-07-08T19:17:13;2.33;;;2.13;;
18711;SDS011;9485;49.386;8.674;2023-07-08T19:22:34;3.35;;;2.33;;
18711;SDS011;9485;49.386;8.674;2023-07-08T19:27:55;5.30;;;2.67;;
18711;SDS011;9485;49.386;8.674;2023-07-08T19:33:17;3.17;;;2.28;;
18711;SDS011;9485;49.386;8.674;2023-07-08T19:38:38;2.78;;;2.22;;
18711;SDS011;9485;49.386;8.674;2023-07-08T19:43:59;5.53;;;2.22;;
18711;SDS011;9485;49.386;8.674;2023-07-08T19:49:28;4.80;;;2.30;;
18711;SDS011;9485;49.386;8.674;2023-07-08T19:54:49;3.72;;;2.25;;
18711;SDS011;9485;49.386;8.674;2023-07-08T20:00:24;3.00;;;2.20;;
18711;SDS011;9485;49.386;8.674;2023-07-08T20:05:51;3.55;;;2.17;;
18711;SDS011;9485;49.386;8.674;2023-07-08T20:11:12;5.55;;;2.30;;
18711;SDS011;9485;49.386;8.674;2023-07-08T20:16:33;2.72;;;2.28;;
18711;SDS011;9485;49.386;8.674;2023-07-08T20:21:58;3.65;;;2.53;;
18711;SDS011;9485;49.386;8.674;2023-07-08T20:27:19;4.50;;;2.55;;
18711;SDS011;9485;49.386;8.674;2023-07-08T20:32:45;4.20;;;2.42;;
18711;SDS011;9485;49.386;8.674;2023-07-08T20:38:10;6.53;;;3.80;;
18711;SDS011;9485;49.386;8.674;2023-07-08T20:43:32;17.40;;;10.68;;
18711;SDS011;9485;49.386;8.674;2023-07-08T20:48:52;27.25;;;14.23;;
18711;SDS011;9485;49.386;8.674;2023-07-08T20:54:17;15.30;;;10.77;;
18711;SDS011;9485;49.386;8.674;2023-07-08T20:59:38;13.50;;;9.40;;
18711;SDS011;9485;49.386;8.674;2023-07-08T21:04:59;11.43;;;7.38;;
18711;SDS011;9485;49.386;8.674;2023-07-08T21:10:22;9.60;;;6.25;;
18711;SDS011;9485;49.386;8.674;2023-07-08T21:15:44;6.50;;;4.28;;
18711;SDS011;9485;49.386;8.674;2023-07-08T21:21:07;7.97;;;5.28;;
18711;SDS011;9485;49.386;8.674;2023-07-08T21:26:32;7.25;;;4.45;;
18711;SDS011;9485;49.386;8.674;2023-07-08T21:31:52;6.57;;;3.97;;
18711;SDS011;9485;49.386;8.674;2023-07-08T21:37:13;6.47;;;4.18;;
18711;SDS011;9485;49.386;8.674;2023-07-08T21:42:36;4.28;;;2.67;;
18711;SDS011;9485;49.386;8.674;2023-07-08T21:47:57;12.40;;;6.53;;
18711;SDS011;9485;49.386;8.674;2023-07-08T21:53:19;16.52;;;8.65;;
18711;SDS011;9485;49.386;8.674;2023-07-08T21:58:46;11.07;;;7.03;;
18711;SDS011;9485;49.386;8.674;2023-07-08T22:04:08;8.05;;;5.60;;
18711;SDS011;9485;49.386;8.674;2023-07-08T22:09:30;6.65;;;4.80;;
18711;SDS011;9485;49.386;8.674;2023-07-08T22:14:52;5.68;;;4.03;;
18711;SDS011;9485;49.386;8.674;2023-07-08T22:20:13;5.60;;;3.67;;
18711;SDS011;9485;49.386;8.674;2023-07-08T22:25:34;4.82;;;4.05;;
18711;SDS011;9485;49.386;8.674;2023-07-08T22:30:56;4.85;;;3.38;;
18711;SDS011;9485;49.386;8.674;2023-07-08T22:36:16;7.10;;;4.10;;
18711;SDS011;9485;49.386;8.674;2023-07-08T22:41:39;4.35;;;3.33;;
18711;SDS011;9485;49.386;8.674;2023-07-08T22:47:07;4.25;;;3.20;;
18711;SDS011;9485;49.386;8.674;2023-07-08T22:52:32;6.53;;;3.55;;
18711;SDS011;9485;49.386;8.674;2023-07-08T22:57:57;3.67;;;2.90;;
18711;SDS011;9485;49.386;8.674;2023-07-08T23:03:21;4.65;;;2.95;;
18711;SDS011;9485;49.386;8.674;2023-07-08T23:08:42;3.70;;;3.03;;
18711;SDS011;9485;49.386;8.674;2023-07-08T23:14:03;3.58;;;2.80;;
18711;SDS011;9485;49.386;8.674;2023-07-08T23:19:25;5.90;;;3.25;;
18711;SDS011;9485;49.386;8.674;2023-07-08T23:24:46;3.95;;;2.70;;
18711;SDS011;9485;49.386;8.674;2023-07-08T23:30:13;4.40;;;2.97;;
18711;SDS011;9485;49.386;8.674;2023-07-08T23:35:39;3.70;;;2.80;;
18711;SDS011;9485;49.386;8.674;2023-07-08T23:41:00;5.05;;;2.88;;
18711;SDS011;9485;49.386;8.674;2023-07-08T23:46:22;8.25;;;5.15;;
18711;SDS011;9485;49.386;8.674;2023-07-08T23:51:47;6.03;;;4.18;;
18711;SDS011;9485;49.386;8.674;2023-07-08T23:57:09;5.95;;;3.72;;
